Terminal Aerodrome Forecast
Issued by NWS Pocatello, ID

Home | Current Version | Previous Version | Text Only | Print | Product List | Glossary On
Versions: 1 2 3 4 5 6 7 8 9 10 11 12
000
FTUS45 KPIH 062343
TAFPIH
TAF
KPIH 062343Z 0700/0724 32010KT P6SM VCTS SCT080CB BKN150
     FM070400 VRB06KT P6SM SCT150 BKN200
     FM071800 31008KT P6SM SCT090 SCT150=

USA.gov is the U.S. government's official web portal to all federal, state and local government web resources and services.